map of KHH home
KHH - Airport
Location
City:  Kaohsiung, Taiwan
Name:Kaohsiung International Airport
ICAO:RCKH
IATA:KHH

Details
Type:Airport (Aerodrome, Airfield)
Use:Public/Civil, International (customs port of entry)
Latitude:2234'38"N (22.577094)
Longitude:12021'00"E (120.350006)
Datum:WGS 1984
Elevation:31 ft (9 m)
Variation:3.88W (WMM2015 magnetic declination)
-0.09 annual change
Runways:1
Longest:10335 × 197 ft (3150 × 60 m), paved

Time
Time Zone:UTC+8
Local Time:

Weather
METAR:RCKH 220415Z 33009KT 300V020 7000 FEW018 22/13 Q1019 NOSIG RMK A3009
TAF:RCKH 212300Z 2200/2306 35007KT 6000 FEW015 BKN040
TEMPO 2200/2204 4000 HZ
TEMPO 2204/2210 30012KT
TEMPO 2218/2224 03005KT 4000 BR

Related Locations
Nearby:
Farthest:FLM: 12422 mi / 19991 km
Filadelfia, 19, PY

Find:

   beyond  
but within

Other Information
Maps:
NOTAMs:
Links:
Sources:

  
  • flag of Taiwan
  

Sectional Chart

Flight Planning
at skyvector.com

Satellite Image

Google Maps Satellite view

 

Copyright © 2004-2019 Karl L. Swartz. All rights reserved.
The Great Circle Mapper name and logo are trademarks of the Great Circle Mapper.
All other trademarks mentioned herein belong to their respective owners.
Please see credits for attibutions and further copyright information.

  Follow gcmap on Facebook Follow gcmap on Twitter Follow gcmap on Google+ GCmap on LinkedIn

hCard Microformat

Geo Microformat